createdAt,value
2019-01-27T00:02:08.083Z,69.26
2019-01-27T00:04:36.365Z,70.29
2019-01-27T00:07:04.639Z,69.97
2019-01-27T00:09:32.975Z,68.66
2019-01-27T00:12:01.249Z,69.43
2019-01-27T00:14:29.523Z,70.27
2019-01-27T00:16:57.899Z,70.45
2019-01-27T00:19:26.190Z,69.46
2019-01-27T00:21:54.640Z,68.08
2019-01-27T00:24:22.951Z,69.44
2019-01-27T00:26:51.230Z,69.70
2019-01-27T00:29:19.509Z,69.59
2019-01-27T00:31:47.834Z,70.16
2019-01-27T00:34:16.161Z,70.71
2019-01-27T00:36:44.446Z,70.22
2019-01-27T00:39:12.759Z,70.96
2019-01-27T00:41:41.041Z,70.12
2019-01-27T00:44:09.309Z,70.68
2019-01-27T00:46:37.626Z,70.54
2019-01-27T00:49:05.921Z,70.76
2019-01-27T00:51:34.201Z,71.47
2019-01-27T00:54:02.508Z,70.29
2019-01-27T00:56:30.788Z,69.53
2019-01-27T00:58:59.066Z,69.01
2019-01-27T01:01:27.381Z,69.38
2019-01-27T01:03:55.662Z,69.28
2019-01-27T01:06:23.940Z,69.16
2019-01-27T01:08:52.320Z,67.87
2019-01-27T01:11:20.679Z,67.35
2019-01-27T01:13:48.958Z,66.50
2019-01-27T01:16:17.278Z,65.97
2019-01-27T01:18:45.621Z,64.54
2019-01-27T01:21:13.898Z,64.83
2019-01-27T01:23:42.209Z,64.54
2019-01-27T01:26:10.479Z,64.98
2019-01-27T01:28:38.758Z,64.49
2019-01-27T01:31:07.090Z,64.68
2019-01-27T01:33:35.363Z,63.24
2019-01-27T01:36:03.634Z,65.56
2019-01-27T01:38:31.955Z,66.21
2019-01-27T01:41:00.234Z,65.92
2019-01-27T01:43:28.516Z,65.73
2019-01-27T01:45:56.839Z,66.02
2019-01-27T01:48:26.441Z,66.73
2019-01-27T01:50:54.721Z,65.80
2019-01-27T01:53:23.025Z,66.92
2019-01-27T01:55:51.313Z,67.37
2019-01-27T01:58:19.657Z,67.38
2019-01-27T02:00:47.971Z,66.93
2019-01-27T02:03:16.257Z,66.46
2019-01-27T02:05:44.607Z,66.51
2019-01-27T02:08:12.916Z,66.54
2019-01-27T02:10:41.198Z,67.18
2019-01-27T02:13:09.471Z,67.26
2019-01-27T02:15:41.045Z,65.51
2019-01-27T02:18:09.323Z,66.26
2019-01-27T02:20:37.602Z,65.62
2019-01-27T02:23:05.913Z,65.29
2019-01-27T02:25:34.193Z,65.04
2019-01-27T02:28:02.476Z,65.61
2019-01-27T02:30:30.800Z,65.55
2019-01-27T02:32:59.081Z,64.99
2019-01-27T02:38:27.523Z,64.14
2019-01-27T02:40:55.809Z,65.01
2019-01-27T02:43:24.101Z,64.28
2019-01-27T02:45:52.399Z,63.98
2019-01-27T02:48:20.673Z,63.59
2019-01-27T02:50:48.962Z,64.94
2019-01-27T02:53:17.286Z,65.65
2019-01-27T02:55:45.572Z,66.25
2019-01-27T02:58:13.850Z,65.17
2019-01-27T03:00:42.239Z,65.62
2019-01-27T03:03:11.088Z,64.90
2019-01-27T03:05:52.774Z,64.15
2019-01-27T03:08:21.125Z,64.41
2019-01-27T03:10:49.402Z,64.62
2019-01-27T03:13:17.777Z,64.67
2019-01-27T03:15:46.066Z,63.44
2019-01-27T03:18:14.323Z,63.73
2019-01-27T03:20:42.637Z,64.52
2019-01-27T03:23:10.914Z,63.26
2019-01-27T03:25:39.198Z,64.05
2019-01-27T03:28:07.517Z,65.70
2019-01-27T03:30:35.870Z,64.21
2019-01-27T03:33:04.128Z,65.66
2019-01-27T03:35:32.433Z,65.03
2019-01-27T03:38:00.707Z,64.06
2019-01-27T03:40:28.988Z,63.69
2019-01-27T03:42:57.304Z,63.94
2019-01-27T03:45:25.586Z,62.71
2019-01-27T03:47:53.926Z,61.72
2019-01-27T03:50:22.313Z,60.64
2019-01-27T03:52:50.588Z,62.07
2019-01-27T03:55:27.036Z,62.71
2019-01-27T03:57:55.350Z,62.83
2019-01-27T04:00:24.418Z,61.00
2019-01-27T04:02:52.654Z,61.35
2019-01-27T04:05:21.190Z,62.32
2019-01-27T04:07:49.685Z,62.88
2019-01-27T04:10:22.597Z,62.45
2019-01-27T04:12:50.931Z,60.98
2019-01-27T04:15:19.267Z,60.45
2019-01-27T04:17:47.563Z,60.10
2019-01-27T04:20:18.465Z,59.68
2019-01-27T04:22:46.741Z,61.21
2019-01-27T04:25:15.456Z,63.12
2019-01-27T04:27:43.763Z,63.21
2019-01-27T04:30:15.041Z,65.33
2019-01-27T04:32:43.310Z,66.43
2019-01-27T04:35:12.247Z,66.80
2019-01-27T04:37:40.544Z,66.02
2019-01-27T04:40:11.825Z,66.49
2019-01-27T04:42:40.138Z,66.24
2019-01-27T04:45:11.620Z,66.02
2019-01-27T04:47:39.896Z,64.71
2019-01-27T04:50:11.108Z,63.95
2019-01-27T04:52:39.391Z,62.30
2019-01-27T04:55:13.244Z,62.55
2019-01-27T04:57:41.561Z,60.85
2019-01-27T05:00:16.206Z,62.62
2019-01-27T05:02:46.192Z,62.51
2019-01-27T05:05:14.473Z,62.00
2019-01-27T05:07:42.754Z,62.88
2019-01-27T05:10:13.177Z,63.13
2019-01-27T05:12:41.440Z,62.90
2019-01-27T05:15:17.609Z,62.30
2019-01-27T05:17:45.885Z,61.30
2019-01-27T05:20:14.162Z,60.18
2019-01-27T05:22:42.473Z,60.80
2019-01-27T05:25:15.680Z,60.73
2019-01-27T05:27:43.960Z,61.98
2019-01-27T05:30:23.093Z,61.53
2019-01-27T05:32:51.375Z,57.68
2019-01-27T05:35:19.659Z,57.61
2019-01-27T05:37:47.968Z,57.63
2019-01-27T05:40:18.446Z,58.11
2019-01-27T05:42:46.744Z,56.62
2019-01-27T05:45:17.259Z,58.35
2019-01-27T05:47:45.531Z,60.08
2019-01-27T05:50:14.845Z,61.05
2019-01-27T05:52:43.169Z,60.78
2019-01-27T05:55:16.328Z,60.11
2019-01-27T05:57:44.605Z,62.60
2019-01-27T06:00:20.218Z,62.60
2019-01-27T06:02:48.563Z,62.08
2019-01-27T06:05:16.837Z,61.29
2019-01-27T06:07:45.157Z,63.00
2019-01-27T06:10:13.702Z,63.29
2019-01-27T06:12:41.985Z,61.07
2019-01-27T06:15:13.044Z,62.81
2019-01-27T06:17:41.317Z,63.11
2019-01-27T06:20:12.242Z,67.92
2019-01-27T06:22:40.803Z,67.11
2019-01-27T06:25:11.529Z,65.45
2019-01-27T06:27:39.801Z,67.57
2019-01-27T06:30:14.205Z,67.73
2019-01-27T06:33:00.036Z,64.81
2019-01-27T06:35:28.533Z,63.30
2019-01-27T06:37:56.831Z,64.59
2019-01-27T06:40:25.111Z,63.45
2019-01-27T06:42:53.431Z,62.82
2019-01-27T06:45:21.781Z,60.92
2019-01-27T06:47:50.068Z,62.43
2019-01-27T06:50:18.401Z,61.40
2019-01-27T06:52:46.696Z,62.33
2019-01-27T06:55:17.599Z,62.83
2019-01-27T06:57:45.928Z,61.24
2019-01-27T07:00:27.491Z,61.87
2019-01-27T07:02:57.522Z,61.25
2019-01-27T07:05:27.442Z,59.18
2019-01-27T07:08:06.121Z,60.13
2019-01-27T07:10:41.577Z,60.41
2019-01-27T07:13:11.551Z,59.95
2019-01-27T07:15:47.027Z,60.36
2019-01-27T07:18:19.680Z,58.94
2019-01-27T07:20:52.743Z,59.27
2019-01-27T07:23:28.490Z,58.20
2019-01-27T07:26:01.409Z,58.10
2019-01-27T07:28:31.331Z,58.27
2019-01-27T07:31:19.205Z,58.55
2019-01-27T07:33:51.547Z,58.69
2019-01-27T07:36:21.466Z,58.57
2019-01-27T07:39:01.042Z,57.65
2019-01-27T07:41:36.451Z,58.12
2019-01-27T07:44:21.573Z,58.24
2019-01-27T07:46:51.495Z,58.71
2019-01-27T07:49:30.188Z,61.35
2019-01-27T07:52:08.684Z,61.00
2019-01-27T07:54:47.730Z,61.29
2019-01-27T07:57:33.837Z,59.65
2019-01-27T08:00:06.505Z,58.78
2019-01-27T08:02:42.182Z,58.64
2019-01-27T08:05:24.377Z,59.34
2019-01-27T08:08:00.057Z,58.68
2019-01-27T08:10:32.946Z,58.28
2019-01-27T08:13:11.677Z,58.00
2019-01-27T08:15:44.430Z,58.24
2019-01-27T08:18:16.804Z,58.46
2019-01-27T08:20:49.480Z,57.29
2019-01-27T08:23:22.163Z,55.78
2019-01-27T08:25:58.310Z,56.93
2019-01-27T08:28:31.257Z,57.75
2019-01-27T08:31:13.039Z,57.18
2019-01-27T08:33:45.669Z,57.20
2019-01-27T08:36:18.424Z,59.19
2019-01-27T08:38:48.498Z,58.13
2019-01-27T08:41:34.869Z,57.37
2019-01-27T08:44:10.858Z,57.64
2019-01-27T08:46:40.822Z,58.63
2019-01-27T08:49:09.321Z,58.31
2019-01-27T08:51:37.607Z,57.16
2019-01-27T08:54:06.153Z,57.90
2019-01-27T08:56:34.526Z,57.55
2019-01-27T08:59:02.880Z,56.24
2019-01-27T09:01:49.173Z,55.31
2019-01-27T09:04:19.174Z,55.93
2019-01-27T09:06:57.766Z,56.38
2019-01-27T09:09:36.854Z,55.76
2019-01-27T09:12:18.809Z,57.23
2019-01-27T09:14:48.890Z,56.24
2019-01-27T09:17:30.687Z,55.34
2019-01-27T09:20:06.222Z,55.88
2019-01-27T09:22:38.929Z,55.25
2019-01-27T09:25:18.787Z,53.64
2019-01-27T09:28:03.725Z,54.25
2019-01-27T09:30:49.914Z,56.55
2019-01-27T09:33:32.073Z,53.97
2019-01-27T09:36:18.169Z,53.46
2019-01-27T09:41:42.262Z,54.20
2019-01-27T09:44:15.118Z,54.21
2019-01-27T09:46:54.210Z,53.82
2019-01-27T09:49:24.278Z,53.92
2019-01-27T09:51:54.337Z,54.24
2019-01-27T09:54:24.445Z,54.58
2019-01-27T09:56:57.068Z,53.55
2019-01-27T09:59:27.127Z,52.23
2019-01-27T10:01:57.219Z,52.20
2019-01-27T10:04:27.283Z,52.01
2019-01-27T10:06:57.333Z,53.28
2019-01-27T10:09:43.664Z,52.39
2019-01-27T10:12:16.180Z,51.75
2019-01-27T10:15:02.494Z,52.82
2019-01-27T10:17:35.303Z,58.93
2019-01-27T10:20:06.960Z,56.26
2019-01-27T10:22:37.112Z,55.40
2019-01-27T10:25:16.002Z,53.21
2019-01-27T10:27:42.068Z,54.04
2019-01-27T10:30:18.411Z,53.01
2019-01-27T10:32:51.460Z,53.60
2019-01-27T10:35:42.736Z,53.40
2019-01-27T10:38:14.043Z,52.68
2019-01-27T10:40:46.844Z,52.40
2019-01-27T10:43:16.899Z,52.57
2019-01-27T10:46:01.974Z,51.71
2019-01-27T10:48:37.731Z,52.39
2019-01-27T10:51:25.773Z,51.59
2019-01-27T10:53:55.826Z,51.68
2019-01-27T10:56:41.083Z,52.93
2019-01-27T10:59:13.842Z,55.50
2019-01-27T11:01:43.901Z,56.57
2019-01-27T11:04:16.761Z,54.90
2019-01-27T11:06:49.861Z,53.44
2019-01-27T11:09:35.888Z,52.74
2019-01-27T11:12:23.883Z,53.21
2019-01-27T11:14:56.678Z,52.62
2019-01-27T11:17:29.552Z,52.83
2019-01-27T11:20:02.642Z,51.96
2019-01-27T11:22:48.627Z,53.90
2019-01-27T11:25:33.912Z,54.34
2019-01-27T11:28:03.988Z,53.25
2019-01-27T11:30:39.959Z,52.17
2019-01-27T11:33:12.853Z,52.23
2019-01-27T11:35:48.771Z,51.95
2019-01-27T11:38:30.771Z,50.64
2019-01-27T11:41:00.879Z,55.64
2019-01-27T11:43:30.959Z,53.96
2019-01-27T11:46:18.113Z,52.98
2019-01-27T11:48:54.046Z,51.67
2019-01-27T11:51:24.408Z,51.07
2019-01-27T11:53:52.897Z,50.88
2019-01-27T11:56:21.390Z,50.46
2019-01-27T11:58:49.924Z,50.37
2019-01-27T12:01:18.425Z,50.68
2019-01-27T12:03:46.910Z,50.48
2019-01-27T12:06:16.431Z,49.76
2019-01-27T12:08:44.931Z,50.70
2019-01-27T12:11:13.414Z,51.44
2019-01-27T12:13:41.943Z,51.22
2019-01-27T12:16:10.435Z,51.31
2019-01-27T12:18:38.928Z,54.59
2019-01-27T12:21:07.454Z,53.83
2019-01-27T12:23:35.948Z,52.12
2019-01-27T12:26:04.435Z,51.10
2019-01-27T12:28:32.977Z,52.47
2019-01-27T12:31:01.477Z,53.13
2019-01-27T12:33:29.983Z,52.54
2019-01-27T12:35:58.507Z,51.59
2019-01-27T12:38:27.002Z,50.98
2019-01-27T12:40:55.495Z,51.84
2019-01-27T12:43:24.021Z,52.37
2019-01-27T12:45:52.533Z,52.79
2019-01-27T12:48:21.026Z,51.54
2019-01-27T12:50:50.567Z,51.06
2019-01-27T12:53:19.056Z,50.80
2019-01-27T12:55:47.535Z,51.06
2019-01-27T12:58:16.068Z,49.56
2019-01-27T13:00:47.969Z,49.56
2019-01-27T13:03:16.557Z,50.99
2019-01-27T13:05:45.106Z,50.59
2019-01-27T13:08:15.185Z,55.03
2019-01-27T13:10:43.681Z,55.03
2019-01-27T13:13:12.257Z,53.07
2019-01-27T13:15:40.705Z,51.73
2019-01-27T13:18:09.183Z,52.51
2019-01-27T13:20:37.704Z,52.97
2019-01-27T13:23:06.198Z,52.99
2019-01-27T13:25:34.688Z,53.30
2019-01-27T13:28:03.225Z,52.13
2019-01-27T13:30:31.864Z,53.74
2019-01-27T13:33:03.465Z,54.48
2019-01-27T13:35:32.065Z,54.48
2019-01-27T13:38:00.555Z,53.19
2019-01-27T13:40:29.641Z,54.33
2019-01-27T13:42:58.168Z,53.76
2019-01-27T13:45:32.794Z,52.67
2019-01-27T13:48:01.275Z,52.67
2019-01-27T13:50:29.795Z,53.01
2019-01-27T13:52:58.349Z,54.12
2019-01-27T13:55:31.239Z,55.44
2019-01-27T13:57:59.756Z,55.66
2019-01-27T14:00:34.067Z,55.30
2019-01-27T14:03:02.555Z,56.59
2019-01-27T14:05:31.080Z,58.37
2019-01-27T14:08:01.130Z,59.01
2019-01-27T14:10:30.618Z,59.04
2019-01-27T14:12:59.177Z,59.18
2019-01-27T14:15:30.289Z,58.87
2019-01-27T14:17:58.800Z,59.40
2019-01-27T14:20:27.325Z,59.67
2019-01-27T14:22:55.827Z,59.91
2019-01-27T14:25:26.213Z,59.31
2019-01-27T14:27:54.761Z,59.37
2019-01-27T14:30:31.627Z,59.47
2019-01-27T14:33:01.100Z,59.42
2019-01-27T14:35:29.579Z,59.48
2019-01-27T14:37:58.057Z,60.30
2019-01-27T14:40:28.700Z,59.46
2019-01-27T14:42:57.191Z,58.19
2019-01-27T14:45:27.973Z,57.39
2019-01-27T14:47:56.502Z,57.27
2019-01-27T14:50:36.598Z,57.36
2019-01-27T14:53:06.603Z,57.28
2019-01-27T14:55:35.104Z,57.19
2019-01-27T14:58:03.604Z,57.30
2019-01-27T15:00:36.442Z,57.56
2019-01-27T15:03:05.901Z,57.66
2019-01-27T15:05:34.397Z,57.96
2019-01-27T15:08:02.932Z,57.76
2019-01-27T15:10:31.437Z,57.86
2019-01-27T15:12:59.925Z,58.13
2019-01-27T15:15:28.458Z,58.25
2019-01-27T15:17:56.955Z,57.93
2019-01-27T15:20:34.219Z,58.04
2019-01-27T15:23:04.278Z,58.18
2019-01-27T15:25:32.757Z,58.31
2019-01-27T15:28:01.301Z,58.45
2019-01-27T15:30:39.398Z,58.63
2019-01-27T15:33:08.130Z,58.84
2019-01-27T15:35:41.064Z,58.76
2019-01-27T15:38:09.556Z,59.10
2019-01-27T15:40:38.091Z,58.71
2019-01-27T15:43:06.585Z,58.62
2019-01-27T15:45:35.072Z,58.69
2019-01-27T15:48:03.924Z,58.51
2019-01-27T15:50:34.312Z,58.56
2019-01-27T15:53:02.798Z,58.39
2019-01-27T15:55:31.327Z,58.44
2019-01-27T15:57:59.871Z,58.48
2019-01-27T16:00:30.831Z,58.39
2019-01-27T16:03:00.918Z,58.21
2019-01-27T16:05:29.400Z,58.25
2019-01-27T16:07:59.458Z,58.37
2019-01-27T16:10:28.283Z,58.42
2019-01-27T16:12:57.582Z,58.76
2019-01-27T16:15:36.341Z,59.11
2019-01-27T16:18:06.693Z,58.76
2019-01-27T16:20:35.184Z,58.97
2019-01-27T16:23:21.226Z,59.25
2019-01-27T16:25:49.714Z,58.87
2019-01-27T16:28:18.209Z,58.98
2019-01-27T16:31:00.447Z,58.79
2019-01-27T16:33:42.349Z,59.04
2019-01-27T16:36:10.883Z,59.19
2019-01-27T16:38:39.376Z,59.25
2019-01-27T16:41:07.862Z,59.03
2019-01-27T16:43:40.455Z,59.04
2019-01-27T16:46:08.959Z,59.00
2019-01-27T16:48:37.452Z,58.85
2019-01-27T16:51:05.971Z,58.98
2019-01-27T16:53:37.182Z,58.94
2019-01-27T16:56:08.009Z,59.29
2019-01-27T16:58:39.331Z,59.71
2019-01-27T17:01:10.848Z,59.70
2019-01-27T17:03:40.905Z,59.73
2019-01-27T17:06:09.447Z,59.67
2019-01-27T17:08:37.935Z,59.52
2019-01-27T17:11:06.422Z,59.92
2019-01-27T17:13:36.137Z,59.65
2019-01-27T17:16:06.274Z,59.48
2019-01-27T17:18:34.867Z,59.48
2019-01-27T17:21:03.398Z,59.43
2019-01-27T17:23:31.888Z,59.24
2019-01-27T17:26:00.385Z,58.99
2019-01-27T17:28:29.885Z,59.23
2019-01-27T17:30:58.492Z,59.54
2019-01-27T17:33:28.550Z,59.83
2019-01-27T17:35:57.075Z,60.14
2019-01-27T17:38:28.540Z,60.50
2019-01-27T17:40:57.042Z,60.35
2019-01-27T17:43:25.575Z,60.13
2019-01-27T17:45:54.075Z,59.88
2019-01-27T17:48:22.572Z,60.06
2019-01-27T17:50:51.109Z,59.91
2019-01-27T17:53:19.605Z,59.51
2019-01-27T17:55:48.100Z,59.53
2019-01-27T17:58:21.318Z,59.47
2019-01-27T18:01:10.594Z,59.31
2019-01-27T18:03:46.161Z,59.38
2019-01-27T18:06:18.916Z,59.16
2019-01-27T18:08:48.981Z,59.14
2019-01-27T18:11:31.238Z,59.08
2019-01-27T18:14:04.369Z,59.31
2019-01-27T18:16:32.861Z,60.05
2019-01-27T18:19:01.381Z,60.15
2019-01-27T18:21:29.876Z,61.77
2019-01-27T18:23:59.929Z,63.82
2019-01-27T18:26:28.472Z,63.67
2019-01-27T18:28:57.074Z,63.18
2019-01-27T18:31:25.573Z,63.07
2019-01-27T18:33:55.680Z,62.51
2019-01-27T18:36:24.166Z,61.74
2019-01-27T18:38:52.658Z,62.06
2019-01-27T18:41:21.185Z,61.56
2019-01-27T18:43:49.663Z,61.44
2019-01-27T18:46:20.174Z,61.18
2019-01-27T18:48:50.275Z,61.13
2019-01-27T18:51:18.753Z,60.81
2019-01-27T18:53:51.853Z,60.71
2019-01-27T18:56:21.919Z,60.53
2019-01-27T18:59:10.816Z,60.46
2019-01-27T19:01:58.566Z,60.28
2019-01-27T19:04:28.629Z,60.95
2019-01-27T19:06:58.695Z,60.79
2019-01-27T19:09:34.533Z,60.57
2019-01-27T19:12:04.592Z,60.29
2019-01-27T19:14:43.635Z,60.18
2019-01-27T19:17:17.985Z,60.00
2019-01-27T19:20:07.845Z,60.30
2019-01-27T19:22:43.718Z,61.20
2019-01-27T19:25:30.989Z,60.74
2019-01-27T19:28:21.484Z,60.52
2019-01-27T19:30:54.599Z,60.61
2019-01-27T19:33:35.031Z,60.16
2019-01-27T19:36:08.094Z,59.71
2019-01-27T19:38:54.174Z,59.91
2019-01-27T19:41:24.282Z,59.60
2019-01-27T19:44:00.344Z,59.91
2019-01-27T19:46:36.193Z,59.91
2019-01-27T19:49:07.815Z,59.95
2019-01-27T19:51:55.826Z,60.14
2019-01-27T19:54:30.478Z,60.13
2019-01-27T19:57:03.390Z,60.05
2019-01-27T19:59:33.452Z,59.91
2019-01-27T20:02:19.242Z,59.88
2019-01-27T20:04:56.658Z,61.59
2019-01-27T20:07:26.808Z,60.63
2019-01-27T20:10:02.620Z,61.23
2019-01-27T20:12:32.727Z,61.01
2019-01-27T20:15:05.292Z,60.47
2019-01-27T20:17:39.846Z,59.84
2019-01-27T20:20:18.995Z,59.82
2019-01-27T20:22:58.076Z,60.09
2019-01-27T20:25:46.075Z,59.88
2019-01-27T20:28:27.861Z,59.33
2019-01-27T20:31:00.674Z,60.01
2019-01-27T20:33:33.366Z,60.10
2019-01-27T20:36:09.493Z,60.14
2019-01-27T20:38:45.807Z,59.86
2019-01-27T20:41:15.869Z,60.15
2019-01-27T20:43:45.943Z,59.73
2019-01-27T20:46:16.037Z,60.04
2019-01-27T20:49:02.258Z,60.26
2019-01-27T20:51:32.355Z,60.42
2019-01-27T20:54:02.422Z,60.95
2019-01-27T20:56:35.459Z,60.16
2019-01-27T20:59:24.584Z,60.36
2019-01-27T21:01:54.644Z,60.67
2019-01-27T21:04:41.306Z,60.91
2019-01-27T21:07:11.360Z,60.97
2019-01-27T21:09:43.993Z,61.09
2019-01-27T21:12:17.081Z,60.62
2019-01-27T21:14:47.152Z,60.52
2019-01-27T21:17:20.201Z,61.03
2019-01-27T21:19:48.742Z,60.63
2019-01-27T21:22:17.234Z,61.14
2019-01-27T21:24:45.727Z,61.20
2019-01-27T21:27:17.018Z,60.65
2019-01-27T21:29:45.502Z,60.68
2019-01-27T21:32:13.994Z,60.10
2019-01-27T21:34:42.533Z,59.92
2019-01-27T21:37:11.019Z,60.26
2019-01-27T21:39:39.509Z,60.19
2019-01-27T21:42:08.046Z,62.35
2019-01-27T21:44:36.527Z,61.88
2019-01-27T21:47:05.024Z,62.12
2019-01-27T21:49:33.551Z,61.84
2019-01-27T21:52:02.052Z,61.27
2019-01-27T21:54:31.666Z,61.38
2019-01-27T21:57:00.192Z,61.60
2019-01-27T21:59:28.693Z,61.39
2019-01-27T22:01:57.184Z,60.88
2019-01-27T22:04:26.580Z,61.76
2019-01-27T22:06:55.080Z,61.57
2019-01-27T22:09:23.583Z,62.05
2019-01-27T22:11:52.117Z,62.94
2019-01-27T22:14:20.623Z,61.85
2019-01-27T22:16:48.913Z,61.93
2019-01-27T22:19:17.450Z,62.09
2019-01-27T22:21:45.750Z,62.01
2019-01-27T22:24:14.236Z,61.60
2019-01-27T22:26:42.542Z,61.36
2019-01-27T22:29:10.830Z,61.64
2019-01-27T22:31:41.945Z,61.41
2019-01-27T22:34:10.330Z,61.06
2019-01-27T22:36:38.747Z,60.95
2019-01-27T22:39:08.267Z,60.57
2019-01-27T22:41:36.666Z,60.24
2019-01-27T22:44:05.118Z,59.99
2019-01-27T22:46:33.407Z,60.19
2019-01-27T22:49:01.725Z,60.54
2019-01-27T22:51:30.015Z,61.39
2019-01-27T22:54:00.802Z,61.21
2019-01-27T22:56:29.127Z,60.99
2019-01-27T22:58:57.416Z,61.47
2019-01-27T23:01:25.781Z,60.82
2019-01-27T23:03:54.087Z,60.92
2019-01-27T23:06:23.219Z,60.71
2019-01-27T23:08:51.579Z,62.25
2019-01-27T23:11:20.510Z,63.84
2019-01-27T23:13:48.844Z,62.24
2019-01-27T23:16:18.179Z,62.45
2019-01-27T23:18:46.594Z,62.04
2019-01-27T23:21:14.883Z,61.02
2019-01-27T23:23:44.856Z,61.20
2019-01-27T23:26:13.178Z,61.89
2019-01-27T23:28:41.596Z,61.57
2019-01-27T23:31:09.951Z,61.59
2019-01-27T23:33:38.283Z,61.05
2019-01-27T23:36:06.571Z,60.95
2019-01-27T23:38:34.924Z,61.67
2019-01-27T23:41:03.322Z,61.38
2019-01-27T23:43:34.511Z,62.04
2019-01-27T23:46:02.870Z,61.47
2019-01-27T23:48:31.186Z,62.04
2019-01-27T23:51:01.174Z,61.18
2019-01-27T23:53:29.537Z,61.47
2019-01-27T23:55:57.860Z,62.25
2019-01-27T23:58:26.208Z,61.71
